sensor_id;sensor_type;location;lat;lon;timestamp;pressure;altitude;pressure_sealevel;temperature;humidity
84959;BME280;75256;48.062;11.662;2024-03-22T00:00:37;96042.44;;;5.59;97.10
84959;BME280;75256;48.062;11.662;2024-03-22T00:03:08;96036.25;;;5.55;97.39
84959;BME280;75256;48.062;11.662;2024-03-22T00:05:33;96034.34;;;5.52;97.46
84959;BME280;75256;48.062;11.662;2024-03-22T00:07:58;96038.97;;;5.55;97.72
84959;BME280;75256;48.062;11.662;2024-03-22T00:10:24;96022.31;;;5.60;97.40
84959;BME280;75256;48.062;11.662;2024-03-22T00:12:49;96025.41;;;5.59;97.91
84959;BME280;75256;48.062;11.662;2024-03-22T00:15:15;96028.53;;;5.57;97.55
84959;BME280;75256;48.062;11.662;2024-03-22T00:17:42;96027.34;;;5.58;97.58
84959;BME280;75256;48.062;11.662;2024-03-22T00:20:08;96022.34;;;5.53;97.46
84959;BME280;75256;48.062;11.662;2024-03-22T00:22:34;96021.19;;;5.58;97.60
84959;BME280;75256;48.062;11.662;2024-03-22T00:24:59;96029.31;;;5.58;97.58
84959;BME280;75256;48.062;11.662;2024-03-22T00:27:24;96019.22;;;5.62;97.43
84959;BME280;75256;48.062;11.662;2024-03-22T00:29:50;96024.63;;;5.62;97.56
84959;BME280;75256;48.062;11.662;2024-03-22T00:32:15;96025.78;;;5.61;97.74
84959;BME280;75256;48.062;11.662;2024-03-22T00:34:41;96017.28;;;5.59;97.63
84959;BME280;75256;48.062;11.662;2024-03-22T00:37:06;96030.13;;;5.44;97.44
84959;BME280;75256;48.062;11.662;2024-03-22T00:39:34;96022.75;;;5.48;97.46
84959;BME280;75256;48.062;11.662;2024-03-22T00:42:03;96016.97;;;5.46;97.35
84959;BME280;75256;48.062;11.662;2024-03-22T00:44:28;96014.63;;;5.52;97.45
84959;BME280;75256;48.062;11.662;2024-03-22T00:46:54;96012.34;;;5.40;97.42
84959;BME280;75256;48.062;11.662;2024-03-22T00:49:19;96004.34;;;5.19;97.63
84959;BME280;75256;48.062;11.662;2024-03-22T00:51:44;95999.34;;;5.06;97.79
84959;BME280;75256;48.062;11.662;2024-03-22T00:54:10;96001.63;;;5.22;97.83
84959;BME280;75256;48.062;11.662;2024-03-22T00:56:35;95995.03;;;5.23;97.60
84959;BME280;75256;48.062;11.662;2024-03-22T00:59:01;95993.13;;;5.20;97.58
84959;BME280;75256;48.062;11.662;2024-03-22T01:01:26;95993.16;;;5.13;97.50
84959;BME280;75256;48.062;11.662;2024-03-22T01:03:52;95989.66;;;5.13;97.83
84959;BME280;75256;48.062;11.662;2024-03-22T01:06:17;95983.88;;;5.14;98.11
84959;BME280;75256;48.062;11.662;2024-03-22T01:08:48;95985.38;;;5.26;97.97
84959;BME280;75256;48.062;11.662;2024-03-22T01:11:14;95975.34;;;5.19;97.79
84959;BME280;75256;48.062;11.662;2024-03-22T01:13:41;95978.50;;;5.07;97.63
84959;BME280;75256;48.062;11.662;2024-03-22T01:16:07;95992.06;;;4.93;97.84
84959;BME280;75256;48.062;11.662;2024-03-22T01:18:35;95970.84;;;4.84;97.94
84959;BME280;75256;48.062;11.662;2024-03-22T01:21:03;95968.94;;;4.78;98.61
84959;BME280;75256;48.062;11.662;2024-03-22T01:23:28;95972.81;;;4.73;98.40
84959;BME280;75256;48.062;11.662;2024-03-22T01:25:56;95960.84;;;4.67;98.37
84959;BME280;75256;48.062;11.662;2024-03-22T01:28:22;95958.13;;;4.64;98.52
84959;BME280;75256;48.062;11.662;2024-03-22T01:30:47;95963.16;;;4.65;98.70
84959;BME280;75256;48.062;11.662;2024-03-22T01:33:13;95959.31;;;4.70;98.30
84959;BME280;75256;48.062;11.662;2024-03-22T01:35:38;95955.03;;;4.76;98.80
84959;BME280;75256;48.062;11.662;2024-03-22T01:38:03;95953.09;;;4.73;98.19
84959;BME280;75256;48.062;11.662;2024-03-22T01:40:29;95962.41;;;4.61;98.32
84959;BME280;75256;48.062;11.662;2024-03-22T01:42:58;95957.81;;;4.55;98.37
84959;BME280;75256;48.062;11.662;2024-03-22T01:45:27;95959.28;;;4.80;98.39
84959;BME280;75256;48.062;11.662;2024-03-22T01:48:01;95954.56;;;4.95;98.33
84959;BME280;75256;48.062;11.662;2024-03-22T01:50:29;95957.66;;;5.00;97.74
84959;BME280;75256;48.062;11.662;2024-03-22T01:53:00;95957.75;;;4.69;97.49
84959;BME280;75256;48.062;11.662;2024-03-22T01:55:26;95949.28;;;4.60;98.12
84959;BME280;75256;48.062;11.662;2024-03-22T01:57:52;95947.72;;;4.59;98.19
84959;BME280;75256;48.062;11.662;2024-03-22T02:00:20;95945.34;;;4.82;97.98
84959;BME280;75256;48.062;11.662;2024-03-22T02:02:46;95948.38;;;4.98;97.70
84959;BME280;75256;48.062;11.662;2024-03-22T02:05:16;95949.97;;;4.92;97.16
84959;BME280;75256;48.062;11.662;2024-03-22T02:07:45;95946.59;;;4.60;96.88
84959;BME280;75256;48.062;11.662;2024-03-22T02:10:13;95938.91;;;4.44;97.29
84959;BME280;75256;48.062;11.662;2024-03-22T02:12:41;95939.28;;;4.50;97.44
84959;BME280;75256;48.062;11.662;2024-03-22T02:15:07;95937.00;;;4.34;97.40
84959;BME280;75256;48.062;11.662;2024-03-22T02:17:34;95928.16;;;4.20;97.45
84959;BME280;75256;48.062;11.662;2024-03-22T02:20:02;95935.09;;;4.10;97.43
84959;BME280;75256;48.062;11.662;2024-03-22T02:22:29;95919.66;;;4.11;98.12
84959;BME280;75256;48.062;11.662;2024-03-22T02:24:54;95923.53;;;4.13;97.98
84959;BME280;75256;48.062;11.662;2024-03-22T02:27:20;95918.88;;;4.14;97.67
84959;BME280;75256;48.062;11.662;2024-03-22T02:29:46;95921.56;;;4.07;97.71
84959;BME280;75256;48.062;11.662;2024-03-22T02:32:13;95915.03;;;4.08;97.66
84959;BME280;75256;48.062;11.662;2024-03-22T02:34:41;95911.16;;;4.05;97.63
84959;BME280;75256;48.062;11.662;2024-03-22T02:37:07;95906.94;;;4.11;97.96
84959;BME280;75256;48.062;11.662;2024-03-22T02:39:34;95912.72;;;4.03;97.56
84959;BME280;75256;48.062;11.662;2024-03-22T02:41:59;95913.13;;;3.94;97.39
84959;BME280;75256;48.062;11.662;2024-03-22T02:44:25;95904.25;;;3.87;97.57
84959;BME280;75256;48.062;11.662;2024-03-22T02:46:53;95905.41;;;3.86;97.71
84959;BME280;75256;48.062;11.662;2024-03-22T02:49:20;95901.56;;;3.79;97.38
84959;BME280;75256;48.062;11.662;2024-03-22T02:51:46;95899.22;;;3.81;97.53
84959;BME280;75256;48.062;11.662;2024-03-22T02:54:12;95895.38;;;3.83;97.26
84959;BME280;75256;48.062;11.662;2024-03-22T02:56:37;95895.00;;;3.73;97.45
84959;BME280;75256;48.062;11.662;2024-03-22T02:59:02;95898.84;;;3.87;97.45
84959;BME280;75256;48.062;11.662;2024-03-22T03:01:30;95897.31;;;3.86;97.17
84959;BME280;75256;48.062;11.662;2024-03-22T03:03:55;95893.06;;;3.74;97.20
84959;BME280;75256;48.062;11.662;2024-03-22T03:06:21;95891.53;;;3.66;97.06
84959;BME280;75256;48.062;11.662;2024-03-22T03:08:46;95895.00;;;3.66;97.07
84959;BME280;75256;48.062;11.662;2024-03-22T03:11:14;95886.13;;;3.73;97.35
84959;BME280;75256;48.062;11.662;2024-03-22T03:13:40;95882.28;;;3.81;97.20
84959;BME280;75256;48.062;11.662;2024-03-22T03:16:05;95876.50;;;3.79;96.92
84959;BME280;75256;48.062;11.662;2024-03-22T03:18:31;95866.47;;;3.72;96.84
84959;BME280;75256;48.062;11.662;2024-03-22T03:20:56;95876.09;;;3.66;97.00
84959;BME280;75256;48.062;11.662;2024-03-22T03:23:21;95867.25;;;3.62;97.10
84959;BME280;75256;48.062;11.662;2024-03-22T03:25:49;95870.34;;;3.54;97.20
84959;BME280;75256;48.062;11.662;2024-03-22T03:28:14;95869.94;;;3.52;96.62
84959;BME280;75256;48.062;11.662;2024-03-22T03:30:40;95860.69;;;3.49;97.22
84959;BME280;75256;48.062;11.662;2024-03-22T03:33:05;95869.94;;;3.45;97.14
84959;BME280;75256;48.062;11.662;2024-03-22T03:35:33;95870.72;;;3.42;97.19
84959;BME280;75256;48.062;11.662;2024-03-22T03:37:59;95866.47;;;3.37;96.97
84959;BME280;75256;48.062;11.662;2024-03-22T03:40:24;95874.59;;;3.44;97.03
84959;BME280;75256;48.062;11.662;2024-03-22T03:42:53;95865.72;;;3.47;97.13
84959;BME280;75256;48.062;11.662;2024-03-22T03:45:21;95853.75;;;3.38;96.50
84959;BME280;75256;48.062;11.662;2024-03-22T03:47:46;95860.31;;;3.37;96.60
84959;BME280;75256;48.062;11.662;2024-03-22T03:50:12;95860.69;;;3.46;96.85
84959;BME280;75256;48.062;11.662;2024-03-22T03:52:37;95852.97;;;3.48;96.48
84959;BME280;75256;48.062;11.662;2024-03-22T03:55:03;95858.00;;;3.49;96.01
84959;BME280;75256;48.062;11.662;2024-03-22T03:57:29;95848.34;;;3.38;96.54
84959;BME280;75256;48.062;11.662;2024-03-22T03:59:54;95848.34;;;3.38;96.56
84959;BME280;75256;48.062;11.662;2024-03-22T04:02:22;95854.13;;;3.29;96.28
84959;BME280;75256;48.062;11.662;2024-03-22T04:04:47;95841.78;;;3.28;96.45
84959;BME280;75256;48.062;11.662;2024-03-22T04:07:12;95842.19;;;3.23;96.73
84959;BME280;75256;48.062;11.662;2024-03-22T04:09:38;95843.72;;;3.24;96.89
84959;BME280;75256;48.062;11.662;2024-03-22T04:12:03;95836.00;;;3.26;96.51
84959;BME280;75256;48.062;11.662;2024-03-22T04:14:29;95846.03;;;3.29;96.49
84959;BME280;75256;48.062;11.662;2024-03-22T04:16:56;95845.66;;;3.24;96.50
84959;BME280;75256;48.062;11.662;2024-03-22T04:19:22;95835.63;;;3.24;96.05
84959;BME280;75256;48.062;11.662;2024-03-22T04:21:49;95835.25;;;3.22;96.28
84959;BME280;75256;48.062;11.662;2024-03-22T04:24:15;95829.06;;;3.22;96.33
84959;BME280;75256;48.062;11.662;2024-03-22T04:26:41;95828.31;;;3.25;96.51
84959;BME280;75256;48.062;11.662;2024-03-22T04:29:06;95820.97;;;3.04;96.36
84959;BME280;75256;48.062;11.662;2024-03-22T04:31:31;95817.13;;;3.05;97.40
84959;BME280;75256;48.062;11.662;2024-03-22T04:33:57;95817.50;;;3.14;97.44
84959;BME280;75256;48.062;11.662;2024-03-22T04:36:22;95826.00;;;3.16;97.53
84959;BME280;75256;48.062;11.662;2024-03-22T04:38:50;95815.97;;;3.20;97.87
84959;BME280;75256;48.062;11.662;2024-03-22T04:41:15;95816.34;;;3.29;97.81
84959;BME280;75256;48.062;11.662;2024-03-22T04:43:43;95823.69;;;3.25;97.57
84959;BME280;75256;48.062;11.662;2024-03-22T04:46:09;95819.06;;;3.43;97.83
84959;BME280;75256;48.062;11.662;2024-03-22T04:48:34;95822.91;;;3.35;97.73
84959;BME280;75256;48.062;11.662;2024-03-22T04:51:02;95825.22;;;3.37;97.93
84959;BME280;75256;48.062;11.662;2024-03-22T04:53:32;95821.38;;;3.31;98.19
84959;BME280;75256;48.062;11.662;2024-03-22T04:56:00;95822.91;;;3.28;98.00
84959;BME280;75256;48.062;11.662;2024-03-22T04:58:25;95820.22;;;3.35;97.39
84959;BME280;75256;48.062;11.662;2024-03-22T05:00:56;95818.66;;;3.41;97.59
84959;BME280;75256;48.062;11.662;2024-03-22T05:03:22;95822.13;;;3.35;97.93
84959;BME280;75256;48.062;11.662;2024-03-22T05:05:49;95820.19;;;3.56;97.99
84959;BME280;75256;48.062;11.662;2024-03-22T05:08:17;95818.28;;;3.60;98.03
84959;BME280;75256;48.062;11.662;2024-03-22T05:10:45;95817.09;;;3.61;97.95
84959;BME280;75256;48.062;11.662;2024-03-22T05:13:10;95809.41;;;3.56;98.10
84959;BME280;75256;48.062;11.662;2024-03-22T05:15:35;95812.47;;;3.72;98.52
84959;BME280;75256;48.062;11.662;2024-03-22T05:18:03;95818.63;;;3.87;98.42
84959;BME280;75256;48.062;11.662;2024-03-22T05:20:29;95811.22;;;4.09;97.64
84959;BME280;75256;48.062;11.662;2024-03-22T05:22:55;95811.19;;;4.23;97.75
84959;BME280;75256;48.062;11.662;2024-03-22T05:25:21;95807.72;;;4.22;97.61
84959;BME280;75256;48.062;11.662;2024-03-22T05:27:46;95810.78;;;4.28;97.74
84959;BME280;75256;48.062;11.662;2024-03-22T05:30:12;95807.66;;;4.36;97.52
84959;BME280;75256;48.062;11.662;2024-03-22T05:32:43;95803.00;;;4.44;97.46
84959;BME280;75256;48.062;11.662;2024-03-22T05:35:08;95812.25;;;4.50;97.22
84959;BME280;75256;48.062;11.662;2024-03-22T05:37:34;95804.84;;;4.57;96.69
84959;BME280;75256;48.062;11.662;2024-03-22T05:40:02;95799.81;;;4.63;96.43
84959;BME280;75256;48.062;11.662;2024-03-22T05:42:31;95804.03;;;4.67;96.36
84959;BME280;75256;48.062;11.662;2024-03-22T05:44:57;95809.81;;;4.73;96.22
84959;BME280;75256;48.062;11.662;2024-03-22T05:47:22;95802.44;;;4.77;95.90
84959;BME280;75256;48.062;11.662;2024-03-22T05:49:50;95805.88;;;4.84;95.78
84959;BME280;75256;48.062;11.662;2024-03-22T05:52:19;95803.16;;;4.88;95.51
84959;BME280;75256;48.062;11.662;2024-03-22T05:54:46;95801.22;;;4.88;95.21
84959;BME280;75256;48.062;11.662;2024-03-22T05:57:12;95799.63;;;4.94;95.45
84959;BME280;75256;48.062;11.662;2024-03-22T05:59:37;95796.13;;;4.97;95.62
84959;BME280;75256;48.062;11.662;2024-03-22T06:02:03;95794.56;;;5.00;95.75
84959;BME280;75256;48.062;11.662;2024-03-22T06:04:28;95789.53;;;5.02;95.77
84959;BME280;75256;48.062;11.662;2024-03-22T06:06:56;95787.56;;;5.06;96.48
84959;BME280;75256;48.062;11.662;2024-03-22T06:09:25;95793.34;;;5.08;96.54
84959;BME280;75256;48.062;11.662;2024-03-22T06:12:05;95791.81;;;5.11;95.69
84959;BME280;75256;48.062;11.662;2024-03-22T06:14:31;95789.47;;;5.09;95.84
84959;BME280;75256;48.062;11.662;2024-03-22T06:16:59;95787.53;;;5.13;96.00
84959;BME280;75256;48.062;11.662;2024-03-22T06:19:26;95786.75;;;5.09;96.24
84959;BME280;75256;48.062;11.662;2024-03-22T06:21:52;95790.69;;;5.01;96.89
84959;BME280;75256;48.062;11.662;2024-03-22T06:24:17;95781.81;;;5.00;96.89
84959;BME280;75256;48.062;11.662;2024-03-22T06:26:43;95777.16;;;5.04;96.66
84959;BME280;75256;48.062;11.662;2024-03-22T06:29:08;95786.41;;;5.07;96.35
84959;BME280;75256;48.062;11.662;2024-03-22T06:31:33;95783.69;;;5.11;96.69
84959;BME280;75256;48.062;11.662;2024-03-22T06:34:01;95788.31;;;5.10;96.46
84959;BME280;75256;48.062;11.662;2024-03-22T06:36:31;95782.09;;;5.13;96.51
84959;BME280;75256;48.062;11.662;2024-03-22T06:38:57;95782.88;;;5.14;96.52
84959;BME280;75256;48.062;11.662;2024-03-22T06:41:27;95785.97;;;5.16;96.74
84959;BME280;75256;48.062;11.662;2024-03-22T06:43:53;95793.66;;;5.21;96.07
84959;BME280;75256;48.062;11.662;2024-03-22T06:46:18;95786.25;;;5.25;96.26
84959;BME280;75256;48.062;11.662;2024-03-22T06:48:45;95787.81;;;5.29;96.40
84959;BME280;75256;48.062;11.662;2024-03-22T06:51:10;95786.16;;;5.39;96.26
84959;BME280;75256;48.062;11.662;2024-03-22T06:53:38;95787.22;;;5.48;96.47
84959;BME280;75256;48.062;11.662;2024-03-22T06:56:03;95787.94;;;5.56;96.29
84959;BME280;75256;48.062;11.662;2024-03-22T06:58:29;95786.41;;;5.55;96.28
84959;BME280;75256;48.062;11.662;2024-03-22T07:00:57;95782.91;;;5.58;96.52
84959;BME280;75256;48.062;11.662;2024-03-22T07:03:22;95784.69;;;5.71;95.85
84959;BME280;75256;48.062;11.662;2024-03-22T07:05:48;95781.88;;;5.85;95.56
84959;BME280;75256;48.062;11.662;2024-03-22T07:08:15;95773.63;;;5.99;95.69
84959;BME280;75256;48.062;11.662;2024-03-22T07:10:41;95783.63;;;6.02;95.68
84959;BME280;75256;48.062;11.662;2024-03-22T07:13:07;95790.50;;;6.10;95.69
84959;BME280;75256;48.062;11.662;2024-03-22T07:15:33;95791.19;;;6.21;95.25
84959;BME280;75256;48.062;11.662;2024-03-22T07:18:00;95785.56;;;6.36;95.68
84959;BME280;75256;48.062;11.662;2024-03-22T07:20:27;95787.44;;;6.42;96.08
84959;BME280;75256;48.062;11.662;2024-03-22T07:22:52;95789.41;;;6.42;96.23
84959;BME280;75256;48.062;11.662;2024-03-22T07:25:18;95780.66;;;6.57;96.21
84959;BME280;75256;48.062;11.662;2024-03-22T07:27:46;95781.31;;;6.68;95.37
84959;BME280;75256;48.062;11.662;2024-03-22T07:30:13;95777.75;;;6.71;95.29
84959;BME280;75256;48.062;11.662;2024-03-22T07:32:40;95781.78;;;6.90;95.20
84959;BME280;75256;48.062;11.662;2024-03-22T07:35:06;95776.94;;;7.01;95.25
84959;BME280;75256;48.062;11.662;2024-03-22T07:37:33;95773.25;;;7.14;95.06
84959;BME280;75256;48.062;11.662;2024-03-22T07:40:02;95778.56;;;7.21;94.72
84959;BME280;75256;48.062;11.662;2024-03-22T07:42:28;95774.19;;;7.27;95.05
84959;BME280;75256;48.062;11.662;2024-03-22T07:44:56;95774.47;;;7.36;95.06
84959;BME280;75256;48.062;11.662;2024-03-22T07:47:21;95773.69;;;7.36;95.24
84959;BME280;75256;48.062;11.662;2024-03-22T07:49:46;95775.66;;;7.35;95.58
84959;BME280;75256;48.062;11.662;2024-03-22T07:52:12;95779.38;;;7.45;95.52
84959;BME280;75256;48.062;11.662;2024-03-22T07:54:39;95782.38;;;7.50;95.74
84959;BME280;75256;48.062;11.662;2024-03-22T07:57:05;95778.84;;;7.53;94.98
84959;BME280;75256;48.062;11.662;2024-03-22T07:59:30;95781.38;;;7.64;95.44
84959;BME280;75256;48.062;11.662;2024-03-22T08:01:58;95779.25;;;7.75;94.94
84959;BME280;75256;48.062;11.662;2024-03-22T08:04:23;95774.09;;;7.81;94.76
84959;BME280;75256;48.062;11.662;2024-03-22T08:06:50;95771.38;;;7.81;93.93
84959;BME280;75256;48.062;11.662;2024-03-22T08:09:16;95769.09;;;7.79;93.68
84959;BME280;75256;48.062;11.662;2024-03-22T08:11:43;95767.06;;;7.83;95.10
84959;BME280;75256;48.062;11.662;2024-03-22T08:14:09;95759.19;;;7.89;94.70
84959;BME280;75256;48.062;11.662;2024-03-22T08:16:36;95753.75;;;7.89;94.78
84959;BME280;75256;48.062;11.662;2024-03-22T08:19:02;95760.66;;;7.93;94.51
84959;BME280;75256;48.062;11.662;2024-03-22T08:21:30;95754.41;;;7.96;94.28
84959;BME280;75256;48.062;11.662;2024-03-22T08:23:55;95762.41;;;8.03;95.24
84959;BME280;75256;48.062;11.662;2024-03-22T08:26:20;95757.81;;;8.00;94.24
84959;BME280;75256;48.062;11.662;2024-03-22T08:28:47;95753.44;;;8.06;93.71
84959;BME280;75256;48.062;11.662;2024-03-22T08:31:13;95752.91;;;8.15;91.09
84959;BME280;75256;48.062;11.662;2024-03-22T08:33:38;95751.28;;;8.17;91.26
84959;BME280;75256;48.062;11.662;2024-03-22T08:36:04;95758.59;;;8.20;91.16
84959;BME280;75256;48.062;11.662;2024-03-22T08:38:31;95747.81;;;8.36;91.65
84959;BME280;75256;48.062;11.662;2024-03-22T08:40:57;95758.47;;;8.47;89.16
84959;BME280;75256;48.062;11.662;2024-03-22T08:43:22;95747.50;;;8.50;91.36
84959;BME280;75256;48.062;11.662;2024-03-22T08:45:51;95758.59;;;8.59;91.18
84959;BME280;75256;48.062;11.662;2024-03-22T08:48:16;95744.09;;;8.66;90.99
84959;BME280;75256;48.062;11.662;2024-03-22T08:50:43;95749.66;;;8.78;89.96
84959;BME280;75256;48.062;11.662;2024-03-22T08:53:10;95747.59;;;8.82;88.96
84959;BME280;75256;48.062;11.662;2024-03-22T08:55:36;95741.88;;;8.77;89.04
84959;BME280;75256;48.062;11.662;2024-03-22T08:58:02;95742.50;;;8.85;88.26
84959;BME280;75256;48.062;11.662;2024-03-22T09:00:30;95734.53;;;8.94;88.79
84959;BME280;75256;48.062;11.662;2024-03-22T09:02:58;95731.31;;;8.99;88.54
84959;BME280;75256;48.062;11.662;2024-03-22T09:05:25;95736.25;;;9.04;88.11
84959;BME280;75256;48.062;11.662;2024-03-22T09:07:52;95726.56;;;9.19;89.58
84959;BME280;75256;48.062;11.662;2024-03-22T09:10:24;95723.47;;;9.33;89.23
84959;BME280;75256;48.062;11.662;2024-03-22T09:12:52;95727.81;;;9.46;87.81
84959;BME280;75256;48.062;11.662;2024-03-22T09:15:19;95724.47;;;9.55;88.05
84959;BME280;75256;48.062;11.662;2024-03-22T09:17:45;95717.34;;;9.61;87.73
84959;BME280;75256;48.062;11.662;2024-03-22T09:20:11;95714.09;;;9.66;88.12
84959;BME280;75256;48.062;11.662;2024-03-22T09:22:36;95712.44;;;9.68;88.26
84959;BME280;75256;48.062;11.662;2024-03-22T09:25:04;95705.53;;;9.80;86.81
84959;BME280;75256;48.062;11.662;2024-03-22T09:27:32;95706.84;;;9.88;86.91
84959;BME280;75256;48.062;11.662;2024-03-22T09:30:02;95702.97;;;10.01;85.93
84959;BME280;75256;48.062;11.662;2024-03-22T09:32:29;95704.84;;;10.21;85.69
84959;BME280;75256;48.062;11.662;2024-03-22T09:34:54;95704.88;;;10.33;86.87
84959;BME280;75256;48.062;11.662;2024-03-22T09:37:20;95691.81;;;10.78;78.67
84959;BME280;75256;48.062;11.662;2024-03-22T09:39:45;95700.44;;;10.89;81.79
84959;BME280;75256;48.062;11.662;2024-03-22T09:42:16;95695.41;;;11.00;76.87
84959;BME280;75256;48.062;11.662;2024-03-22T09:44:47;95685.47;;;11.06;80.39
84959;BME280;75256;48.062;11.662;2024-03-22T09:47:15;95692.69;;;11.13;80.23
84959;BME280;75256;48.062;11.662;2024-03-22T09:49:43;95691.13;;;11.24;77.46
84959;BME280;75256;48.062;11.662;2024-03-22T09:52:15;95694.94;;;11.40;78.05
84959;BME280;75256;48.062;11.662;2024-03-22T09:54:47;95684.97;;;11.46;78.40
84959;BME280;75256;48.062;11.662;2024-03-22T09:57:17;95684.66;;;11.44;77.29
84959;BME280;75256;48.062;11.662;2024-03-22T09:59:44;95674.44;;;11.57;77.94
84959;BME280;75256;48.062;11.662;2024-03-22T10:02:11;95684.28;;;12.01;75.11
84959;BME280;75256;48.062;11.662;2024-03-22T10:04:40;95683.06;;;12.02;73.51
84959;BME280;75256;48.062;11.662;2024-03-22T10:07:08;95676.56;;;12.08;74.11
84959;BME280;75256;48.062;11.662;2024-03-22T10:09:38;95673.19;;;12.26;72.21
84959;BME280;75256;48.062;11.662;2024-03-22T10:12:04;95659.94;;;12.46;72.16
84959;BME280;75256;48.062;11.662;2024-03-22T10:14:30;95659.38;;;12.60;69.43
84959;BME280;75256;48.062;11.662;2024-03-22T10:16:56;95659.03;;;12.49;70.98
84959;BME280;75256;48.062;11.662;2024-03-22T10:19:23;95656.28;;;12.80;69.42
84959;BME280;75256;48.062;11.662;2024-03-22T10:22:11;95653.19;;;12.69;72.02
84959;BME280;75256;48.062;11.662;2024-03-22T10:24:40;95654.44;;;12.77;70.19
84959;BME280;75256;48.062;11.662;2024-03-22T10:27:06;95647.13;;;12.74;70.67
84959;BME280;75256;48.062;11.662;2024-03-22T10:29:32;95640.19;;;12.91;72.29
84959;BME280;75256;48.062;11.662;2024-03-22T10:31:59;95637.69;;;13.05;69.82
84959;BME280;75256;48.062;11.662;2024-03-22T10:34:26;95644.75;;;13.33;71.59
84959;BME280;75256;48.062;11.662;2024-03-22T10:36:55;95627.72;;;13.65;65.50
84959;BME280;75256;48.062;11.662;2024-03-22T10:39:22;95632.59;;;13.89;66.12
84959;BME280;75256;48.062;11.662;2024-03-22T10:41:49;95629.53;;;13.96;62.66
84959;BME280;75256;48.062;11.662;2024-03-22T10:44:15;95632.88;;;14.00;64.02
84959;BME280;75256;48.062;11.662;2024-03-22T10:46:46;95631.94;;;14.30;63.10
84959;BME280;75256;48.062;11.662;2024-03-22T10:49:21;95631.03;;;14.24;62.41
84959;BME280;75256;48.062;11.662;2024-03-22T10:51:52;95631.97;;;14.03;61.71
84959;BME280;75256;48.062;11.662;2024-03-22T10:54:26;95624.78;;;14.14;62.34
84959;BME280;75256;48.062;11.662;2024-03-22T10:56:55;95629.66;;;14.37;60.52
84959;BME280;75256;48.062;11.662;2024-03-22T10:59:23;95625.81;;;14.44;59.38
84959;BME280;75256;48.062;11.662;2024-03-22T11:01:52;95624.41;;;14.57;58.56
84959;BME280;75256;48.062;11.662;2024-03-22T11:04:19;95620.25;;;14.62;59.59
84959;BME280;75256;48.062;11.662;2024-03-22T11:06:48;95604.94;;;14.79;58.86
84959;BME280;75256;48.062;11.662;2024-03-22T11:09:27;95598.31;;;14.94;57.35
84959;BME280;75256;48.062;11.662;2024-03-22T11:11:56;95594.91;;;15.00;59.84
84959;BME280;75256;48.062;11.662;2024-03-22T11:14:25;95587.66;;;15.11;59.60
84959;BME280;75256;48.062;11.662;2024-03-22T11:16:51;95596.97;;;15.14;57.03
84959;BME280;75256;48.062;11.662;2024-03-22T11:19:20;95586.09;;;15.19;56.53
84959;BME280;75256;48.062;11.662;2024-03-22T11:21:45;95584.97;;;15.02;59.23
84959;BME280;75256;48.062;11.662;2024-03-22T11:24:11;95577.75;;;15.14;59.30
84959;BME280;75256;48.062;11.662;2024-03-22T11:26:36;95577.03;;;15.28;56.36
84959;BME280;75256;48.062;11.662;2024-03-22T11:29:02;95579.72;;;15.37;56.85
84959;BME280;75256;48.062;11.662;2024-03-22T11:31:27;95566.78;;;15.28;55.03
84959;BME280;75256;48.062;11.662;2024-03-22T11:33:53;95566.69;;;15.37;55.64
84959;BME280;75256;48.062;11.662;2024-03-22T11:36:19;95556.81;;;15.54;56.73
84959;BME280;75256;48.062;11.662;2024-03-22T11:38:46;95565.31;;;15.80;57.22
84959;BME280;75256;48.062;11.662;2024-03-22T11:41:14;95554.91;;;16.13;57.13
84959;BME280;75256;48.062;11.662;2024-03-22T11:43:42;95552.44;;;16.30;55.15
84959;BME280;75256;48.062;11.662;2024-03-22T11:46:10;95552.34;;;16.24;54.41
84959;BME280;75256;48.062;11.662;2024-03-22T11:48:42;95531.44;;;16.03;54.22
84959;BME280;75256;48.062;11.662;2024-03-22T11:51:10;95543.03;;;16.51;52.35
84959;BME280;75256;48.062;11.662;2024-03-22T11:53:38;95532.16;;;16.62;51.60
84959;BME280;75256;48.062;11.662;2024-03-22T11:56:04;95530.47;;;16.35;48.30
84959;BME280;75256;48.062;11.662;2024-03-22T11:58:30;95524.50;;;16.51;52.61
84959;BME280;75256;48.062;11.662;2024-03-22T12:00:58;95532.97;;;17.37;48.18
84959;BME280;75256;48.062;11.662;2024-03-22T12:03:24;95521.09;;;17.97;49.90
84959;BME280;75256;48.062;11.662;2024-03-22T12:05:54;95515.50;;;17.91;47.00
84959;BME280;75256;48.062;11.662;2024-03-22T12:08:24;95504.19;;;17.44;47.33
84959;BME280;75256;48.062;11.662;2024-03-22T12:10:49;95503.28;;;17.12;47.96
84959;BME280;75256;48.062;11.662;2024-03-22T12:13:17;95489.97;;;17.51;48.79
84959;BME280;75256;48.062;11.662;2024-03-22T12:15:42;95486.16;;;17.94;48.92
84959;BME280;75256;48.062;11.662;2024-03-22T12:18:10;95485.75;;;18.06;48.37
84959;BME280;75256;48.062;11.662;2024-03-22T12:20:35;95487.81;;;18.11;48.22
84959;BME280;75256;48.062;11.662;2024-03-22T12:23:03;95486.31;;;17.59;46.55
84959;BME280;75256;48.062;11.662;2024-03-22T12:25:28;95483.41;;;17.68;47.44
84959;BME280;75256;48.062;11.662;2024-03-22T12:27:56;95467.41;;;18.03;47.17
84959;BME280;75256;48.062;11.662;2024-03-22T12:30:22;95470.94;;;17.12;47.97
84959;BME280;75256;48.062;11.662;2024-03-22T12:32:49;95461.78;;;16.81;49.62
84959;BME280;75256;48.062;11.662;2024-03-22T12:35:15;95467.19;;;17.35;48.58
84959;BME280;75256;48.062;11.662;2024-03-22T12:37:41;95463.50;;;18.15;46.80
84959;BME280;75256;48.062;11.662;2024-03-22T12:40:07;95460.13;;;18.37;47.80
84959;BME280;75256;48.062;11.662;2024-03-22T12:42:34;95461.44;;;18.41;46.83
84959;BME280;75256;48.062;11.662;2024-03-22T12:44:59;95443.50;;;18.63;48.11
84959;BME280;75256;48.062;11.662;2024-03-22T12:47:24;95441.00;;;18.65;46.95
84959;BME280;75256;48.062;11.662;2024-03-22T12:49:50;95446.03;;;17.98;48.22
84959;BME280;75256;48.062;11.662;2024-03-22T12:52:16;95427.03;;;17.09;48.24
84959;BME280;75256;48.062;11.662;2024-03-22T12:54:42;95431.56;;;17.52;47.83